createdAt,value
2019-01-05T00:01:19.120Z,101032.79
2019-01-05T00:04:09.041Z,101011.04
2019-01-05T00:07:06.240Z,101005.14
2019-01-05T00:10:08.489Z,101009.70
2019-01-05T00:13:04.566Z,101015.64
2019-01-05T00:16:00.394Z,101012.89
2019-01-05T00:19:02.183Z,101009.95
2019-01-05T00:21:54.966Z,101005.59
2019-01-05T00:25:03.662Z,101008.36
2019-01-05T00:27:53.603Z,100999.69
2019-01-05T00:30:52.741Z,100999.69
2019-01-05T00:33:46.615Z,100987.70
2019-01-05T00:36:58.930Z,100990.94
2019-01-05T00:39:48.776Z,100980.73
2019-01-05T00:42:37.485Z,100977.41
2019-01-05T00:45:26.221Z,100972.63
2019-01-05T00:48:14.860Z,100978.17
2019-01-05T00:51:04.695Z,100973.77
2019-01-05T00:53:54.593Z,100976.27
2019-01-05T00:56:44.437Z,100969.11
2019-01-05T00:59:40.317Z,100972.84
2019-01-05T01:02:28.682Z,100956.52
2019-01-05T01:05:21.279Z,100951.18
2019-01-05T01:08:09.778Z,100948.13
2019-01-05T01:10:58.435Z,100938.30
2019-01-05T01:13:57.377Z,100931.41
2019-01-05T01:17:05.575Z,100929.89
2019-01-05T01:20:05.580Z,100927.02
2019-01-05T01:22:54.045Z,100924.64
2019-01-05T01:25:55.987Z,100920.45
2019-01-05T01:28:48.660Z,100911.19
2019-01-05T01:31:37.022Z,100919.11
2019-01-05T01:34:45.102Z,100910.91
2019-01-05T01:37:39.077Z,100898.22
2019-01-05T01:40:31.995Z,100894.97
2019-01-05T01:43:40.059Z,100885.44
2019-01-05T01:46:26.088Z,100872.36
2019-01-05T01:49:30.888Z,100865.30
2019-01-05T01:52:32.675Z,100872.75
2019-01-05T01:55:21.105Z,100856.14
2019-01-05T01:58:12.448Z,100849.55
2019-01-05T02:01:11.268Z,100856.62
2019-01-05T02:04:04.424Z,100852.80
2019-01-05T02:06:52.992Z,100840.97
2019-01-05T02:09:43.978Z,100839.25
2019-01-05T02:12:39.666Z,100827.42
2019-01-05T02:15:28.531Z,100827.98
2019-01-05T02:19:07.420Z,100823.22
2019-01-05T02:22:42.744Z,100816.16
2019-01-05T02:25:49.261Z,100807.08
2019-01-05T02:29:23.607Z,100797.25
2019-01-05T02:32:38.954Z,100787.13
2019-01-05T02:35:42.893Z,100789.42
2019-01-05T02:39:04.304Z,100770.89
2019-01-05T02:43:01.604Z,100765.83
2019-01-05T02:46:39.282Z,100761.91
2019-01-05T02:49:59.293Z,100753.13
2019-01-05T02:53:11.772Z,100741.95
2019-01-05T02:56:53.510Z,100729.14
2019-01-05T03:00:46.448Z,100728.38
2019-01-05T03:03:58.263Z,100721.42
2019-01-05T03:07:21.893Z,100713.78
2019-01-05T03:10:45.596Z,100707.00
2019-01-05T03:14:23.850Z,100705.08
2019-01-05T03:17:55.861Z,100699.25
2019-01-05T03:21:26.079Z,100686.54
2019-01-05T03:24:55.464Z,100682.61
2019-01-05T03:28:28.482Z,100673.83
2019-01-05T03:32:10.336Z,100662.38
2019-01-05T03:36:14.544Z,100652.98
2019-01-05T03:39:39.846Z,100652.61
2019-01-05T03:43:43.717Z,100650.10
2019-01-05T03:47:16.116Z,100652.58
2019-01-05T03:51:06.093Z,100641.88
2019-01-05T03:54:21.437Z,100641.47
2019-01-05T03:57:43.489Z,100638.59
2019-01-05T04:01:10.829Z,100630.56
2019-01-05T04:04:39.545Z,100626.13
2019-01-05T04:07:43.405Z,100613.13
2019-01-05T04:11:19.137Z,100606.23
2019-01-05T04:14:30.027Z,100601.26
2019-01-05T04:18:18.862Z,100593.23
2019-01-05T04:21:58.778Z,100582.16
2019-01-05T04:25:20.766Z,100576.86
2019-01-05T04:28:52.066Z,100563.86
2019-01-05T04:32:07.262Z,100562.52
2019-01-05T04:35:35.264Z,100562.81
2019-01-05T04:39:15.624Z,100549.54
2019-01-05T04:42:52.803Z,100558.91
2019-01-05T04:46:50.277Z,100562.28
2019-01-05T04:50:25.548Z,100581.34
2019-01-05T04:54:11.705Z,100568.00
2019-01-05T04:57:36.822Z,100581.66
2019-01-05T05:01:12.462Z,100576.83
2019-01-05T05:04:50.099Z,100578.27
2019-01-05T05:08:27.020Z,100594.44
2019-01-05T05:11:55.541Z,100586.77
2019-01-05T05:15:07.287Z,100593.48
2019-01-05T05:18:47.094Z,100587.50
2019-01-05T05:21:54.827Z,100587.20
2019-01-05T05:25:27.978Z,100594.66
2019-01-05T05:29:07.168Z,100589.02
2019-01-05T05:32:46.502Z,100589.77
2019-01-05T05:36:09.494Z,100581.75
2019-01-05T05:39:47.992Z,100585.91
2019-01-05T05:43:29.628Z,100584.34
2019-01-05T05:46:55.060Z,100583.97
2019-01-05T05:50:26.561Z,100585.40
2019-01-05T05:54:04.543Z,100589.11
2019-01-05T05:57:45.998Z,100580.09
2019-01-05T06:01:35.051Z,100583.63
2019-01-05T06:04:59.818Z,100570.08
2019-01-05T06:08:21.259Z,100559.12
2019-01-05T06:11:36.040Z,100560.00
2019-01-05T06:15:33.993Z,100544.76
2019-01-05T06:19:04.764Z,100536.84
2019-01-05T06:22:28.734Z,100532.20
2019-01-05T06:26:03.126Z,100529.05
2019-01-05T06:29:41.601Z,100523.07
2019-01-05T06:33:10.525Z,100513.19
2019-01-05T06:36:42.117Z,100501.14
2019-01-05T06:40:17.356Z,100515.53
2019-01-05T06:43:39.505Z,100512.86
2019-01-05T06:47:05.974Z,100513.11
2019-01-05T06:50:32.470Z,100522.36
2019-01-05T06:54:26.524Z,100535.41
2019-01-05T06:57:59.404Z,100557.23
2019-01-05T07:01:11.427Z,100562.36
2019-01-05T07:04:29.914Z,100576.50
2019-01-05T07:08:11.496Z,100584.70
2019-01-05T07:12:05.660Z,100597.25
2019-01-05T07:15:53.609Z,100596.77
2019-01-05T07:19:34.692Z,100597.50
2019-01-05T07:23:02.869Z,100583.61
2019-01-05T07:26:43.531Z,100598.52
2019-01-05T07:30:25.603Z,100605.85
2019-01-05T07:34:04.810Z,100608.40
2019-01-05T07:37:57.068Z,100617.56
2019-01-05T07:41:21.226Z,100622.36
2019-01-05T07:45:15.395Z,100624.84
2019-01-05T07:48:59.496Z,100611.30
2019-01-05T07:52:23.358Z,100618.73
2019-01-05T07:56:16.184Z,100623.48
2019-01-05T07:59:51.833Z,100628.25
2019-01-05T08:03:29.913Z,100634.49
2019-01-05T08:07:04.000Z,100645.10
2019-01-05T08:10:29.719Z,100647.27
2019-01-05T08:14:09.493Z,100659.50
2019-01-05T08:17:44.484Z,100669.53
2019-01-05T08:21:08.740Z,100677.45
2019-01-05T08:24:38.505Z,100678.33
2019-01-05T08:28:39.543Z,100687.25
2019-01-05T08:32:18.249Z,100689.20
2019-01-05T08:35:51.844Z,100695.79
2019-01-05T08:39:21.415Z,100693.35
2019-01-05T08:43:02.048Z,100699.43
2019-01-05T08:46:28.257Z,100699.19
2019-01-05T08:49:57.015Z,100704.42
2019-01-05T08:53:48.752Z,100709.91
2019-01-05T08:56:53.375Z,100708.08
2019-01-05T09:00:48.589Z,100714.79
2019-01-05T09:04:16.710Z,100723.70
2019-01-05T09:07:51.689Z,100729.19
2019-01-05T09:11:27.382Z,100737.95
2019-01-05T09:15:07.468Z,100742.33
2019-01-05T09:18:40.308Z,100737.95
2019-01-05T09:22:19.248Z,100744.04
2019-01-05T09:25:55.260Z,100754.18
2019-01-05T09:29:31.720Z,100754.60
2019-01-05T09:33:05.547Z,100758.97
2019-01-05T09:36:57.247Z,100761.28
2019-01-05T09:40:18.290Z,100764.45
2019-01-05T09:44:16.566Z,100766.31
2019-01-05T09:47:56.365Z,100767.88
2019-01-05T09:51:40.636Z,100769.85
2019-01-05T09:55:05.516Z,100771.34
2019-01-05T09:58:21.919Z,100783.76
2019-01-05T10:01:48.302Z,100783.53
2019-01-05T10:05:28.079Z,100788.30
2019-01-05T10:08:42.585Z,100794.42
2019-01-05T10:12:24.848Z,100798.03
2019-01-05T10:16:08.147Z,100801.31
2019-01-05T10:19:55.514Z,100808.62
2019-01-05T10:23:28.926Z,100815.70
2019-01-05T10:26:53.772Z,100820.55
2019-01-05T10:30:19.291Z,100815.85
2019-01-05T10:33:41.125Z,100822.82
2019-01-05T10:37:16.035Z,100829.80
2019-01-05T10:40:49.172Z,100829.05
2019-01-05T10:44:09.522Z,100829.97
2019-01-05T10:47:57.487Z,100838.28
2019-01-05T10:51:15.721Z,100842.42
2019-01-05T10:54:50.494Z,100841.30
2019-01-05T10:58:14.667Z,100845.48
2019-01-05T11:02:02.004Z,100845.06
2019-01-05T11:05:37.223Z,100853.00
2019-01-05T11:09:12.772Z,100843.34
2019-01-05T11:12:51.037Z,100850.64
2019-01-05T11:16:14.177Z,100852.30
2019-01-05T11:19:33.530Z,100856.80
2019-01-05T11:23:21.759Z,100858.84
2019-01-05T11:26:57.198Z,100869.62
2019-01-05T11:30:23.723Z,100860.44
2019-01-05T11:34:00.775Z,100860.11
2019-01-05T11:37:52.514Z,100863.77
2019-01-05T11:41:26.565Z,100874.12
2019-01-05T11:44:54.123Z,100878.36
2019-01-05T11:48:32.449Z,100878.89
2019-01-05T11:52:07.050Z,100884.45
2019-01-05T11:55:34.252Z,100889.29
2019-01-05T11:59:16.893Z,100892.19
2019-01-05T12:02:50.107Z,100887.16
2019-01-05T12:06:19.244Z,100890.11
2019-01-05T12:09:36.145Z,100892.15
2019-01-05T12:13:04.086Z,100892.91
2019-01-05T12:16:33.494Z,100898.19
2019-01-05T12:20:06.084Z,100907.89
2019-01-05T12:23:28.528Z,100897.11
2019-01-05T12:26:47.665Z,100898.97
2019-01-05T12:30:10.229Z,100901.66
2019-01-05T12:33:47.797Z,100912.30
2019-01-05T12:37:25.735Z,100905.21
2019-01-05T12:41:00.328Z,100904.89
2019-01-05T12:45:03.708Z,100916.97
2019-01-05T12:48:35.406Z,100919.33
2019-01-05T12:51:59.617Z,100937.14
2019-01-05T12:55:15.642Z,100943.69
2019-01-05T12:58:44.511Z,100942.72
2019-01-05T13:02:18.292Z,100930.58
2019-01-05T13:05:58.318Z,100949.13
2019-01-05T13:09:31.984Z,100939.79
2019-01-05T13:13:11.175Z,100945.87
2019-01-05T13:16:43.417Z,100953.06
2019-01-05T13:20:15.591Z,100947.55
2019-01-05T13:23:32.412Z,100958.84
2019-01-05T13:27:12.862Z,100972.02
2019-01-05T13:30:53.601Z,100976.37
2019-01-05T13:34:23.422Z,100976.39
2019-01-05T13:37:51.519Z,100977.37
2019-01-05T13:41:22.935Z,100979.64
2019-01-05T13:44:53.318Z,100987.18
2019-01-05T13:48:32.282Z,101001.27
2019-01-05T13:51:52.989Z,101005.09
2019-01-05T13:54:42.873Z,101018.48
2019-01-05T13:57:40.945Z,101020.66
2019-01-05T14:00:24.668Z,101028.94
2019-01-05T14:03:13.435Z,101032.69
2019-01-05T14:06:06.119Z,101034.90
2019-01-05T14:08:54.493Z,101042.95
2019-01-05T14:11:47.985Z,101047.84
2019-01-05T14:14:36.698Z,101050.41
2019-01-05T14:17:25.502Z,101055.36
2019-01-05T14:20:27.552Z,101050.84
2019-01-05T14:23:16.261Z,101050.14
2019-01-05T14:26:17.554Z,101049.98
2019-01-05T14:29:05.339Z,101052.02
2019-01-05T14:32:04.393Z,101058.15
2019-01-05T14:35:09.372Z,101065.23
2019-01-05T14:37:57.820Z,101070.41
2019-01-05T14:40:47.659Z,101063.44
2019-01-05T14:43:37.567Z,101066.66
2019-01-05T14:46:30.366Z,101058.47
2019-01-05T14:49:19.358Z,101059.33
2019-01-05T14:52:21.244Z,101058.25
2019-01-05T14:55:20.211Z,101069.14
2019-01-05T14:58:08.871Z,101074.34
2019-01-05T15:01:00.801Z,101083.26
2019-01-05T15:04:05.810Z,101082.98
2019-01-05T15:06:58.676Z,101077.28
2019-01-05T15:09:47.496Z,101084.09
2019-01-05T15:12:36.267Z,101079.84
2019-01-05T15:15:35.023Z,101082.77
2019-01-05T15:18:23.501Z,101089.77
2019-01-05T15:21:05.328Z,101092.39
2019-01-05T15:23:58.756Z,101098.50
2019-01-05T15:26:54.958Z,101101.21
2019-01-05T15:29:38.078Z,101102.47
2019-01-05T15:32:34.004Z,101105.34
2019-01-05T15:35:22.597Z,101099.70
2019-01-05T15:38:15.954Z,101106.70
2019-01-05T15:41:15.378Z,101107.94
2019-01-05T15:44:08.244Z,101115.02
2019-01-05T15:46:57.026Z,101119.80
2019-01-05T15:49:55.991Z,101126.67
2019-01-05T15:52:45.904Z,101131.36
2019-01-05T15:55:34.337Z,101134.59
2019-01-05T15:58:22.890Z,101128.09
2019-01-05T16:01:11.790Z,101137.83
2019-01-05T16:04:10.978Z,101137.37
2019-01-05T16:06:59.417Z,101143.00
2019-01-05T16:09:48.047Z,101144.12
2019-01-05T16:12:46.871Z,101152.43
2019-01-05T16:15:39.764Z,101152.97
2019-01-05T16:18:33.313Z,101161.45
2019-01-05T16:21:23.169Z,101166.77
2019-01-05T16:24:15.425Z,101169.84
2019-01-05T16:27:17.512Z,101169.45
2019-01-05T16:30:19.415Z,101166.42
2019-01-05T16:33:15.273Z,101163.56
2019-01-05T16:36:04.292Z,101159.44
2019-01-05T16:38:56.961Z,101158.67
2019-01-05T16:41:46.821Z,101161.44
2019-01-05T16:44:35.584Z,101161.75
2019-01-05T16:47:22.976Z,101166.79
2019-01-05T16:50:07.790Z,101171.20
2019-01-05T16:52:57.671Z,101172.45
2019-01-05T16:55:40.703Z,101181.70
2019-01-05T16:58:48.884Z,101184.77
2019-01-05T17:01:38.715Z,101190.33
2019-01-05T17:04:36.475Z,101192.98
2019-01-05T17:07:26.319Z,101182.45
2019-01-05T17:10:31.273Z,101179.96
2019-01-05T17:13:20.056Z,101180.34
2019-01-05T17:16:23.444Z,101176.02
2019-01-05T17:19:12.045Z,101175.15
2019-01-05T17:22:04.811Z,101173.02
2019-01-05T17:24:53.264Z,101174.31
2019-01-05T17:27:42.064Z,101174.80
2019-01-05T17:30:30.743Z,101181.83
2019-01-05T17:33:19.328Z,101186.14
2019-01-05T17:36:27.709Z,101196.45
2019-01-05T17:39:32.704Z,101188.95
2019-01-05T17:42:28.647Z,101193.31
2019-01-05T17:45:27.913Z,101202.08
2019-01-05T17:48:21.096Z,101205.27
2019-01-05T17:51:26.045Z,101201.98
2019-01-05T17:54:15.449Z,101210.61
2019-01-05T17:57:04.127Z,101205.91
2019-01-05T18:00:00.000Z,101208.17
2019-01-05T18:02:48.680Z,101216.42
2019-01-05T18:05:41.356Z,101208.27
2019-01-05T18:08:30.012Z,101209.69
2019-01-05T18:11:18.596Z,101211.39
2019-01-05T18:14:08.443Z,101217.98
2019-01-05T18:16:57.133Z,101215.65
2019-01-05T18:19:45.633Z,101230.03
2019-01-05T18:22:34.491Z,101231.70
2019-01-05T18:25:23.250Z,101236.57
2019-01-05T18:28:25.404Z,101242.55
2019-01-05T18:31:13.874Z,101239.59
2019-01-05T18:34:09.761Z,101244.84
2019-01-05T18:37:00.494Z,101250.50
2019-01-05T18:39:59.845Z,101249.42
2019-01-05T18:42:52.509Z,101248.88
2019-01-05T18:45:45.494Z,101248.02
2019-01-05T18:48:34.784Z,101246.29
2019-01-05T18:51:23.257Z,101253.83
2019-01-05T18:54:15.896Z,101248.33
2019-01-05T18:57:04.283Z,101251.79
2019-01-05T18:59:45.020Z,101264.28
2019-01-05T19:02:37.876Z,101262.62
2019-01-05T19:05:42.826Z,101272.68
2019-01-05T19:08:37.066Z,101271.11
2019-01-05T19:11:45.238Z,101279.66
2019-01-05T19:14:44.426Z,101284.53
2019-01-05T19:17:34.248Z,101293.63
2019-01-05T19:20:24.254Z,101296.30
2019-01-05T19:23:13.290Z,101300.70
2019-01-05T19:26:21.193Z,101309.25
2019-01-05T19:29:09.544Z,101320.73
2019-01-05T19:31:58.127Z,101313.35
2019-01-05T19:34:48.140Z,101322.54
2019-01-05T19:37:41.135Z,101328.98
2019-01-05T19:40:34.701Z,101326.62
2019-01-05T19:43:23.490Z,101340.91
2019-01-05T19:46:12.926Z,101343.43
2019-01-05T19:49:17.815Z,101335.89
2019-01-05T19:52:10.681Z,101338.64
2019-01-05T19:55:07.383Z,101338.72
2019-01-05T19:58:06.629Z,101337.63
2019-01-05T20:01:05.505Z,101337.77
2019-01-05T20:04:01.288Z,101338.48
2019-01-05T20:06:49.893Z,101343.42
2019-01-05T20:09:48.929Z,101342.01
2019-01-05T20:12:37.383Z,101344.38
2019-01-05T20:15:43.422Z,101340.28
2019-01-05T20:18:32.177Z,101345.63
2019-01-05T20:21:27.946Z,101350.19
2019-01-05T20:24:23.586Z,101342.33
2019-01-05T20:27:28.719Z,101342.09
2019-01-05T20:30:24.565Z,101347.98
2019-01-05T20:33:20.205Z,101349.78
2019-01-05T20:36:22.234Z,101349.14
2019-01-05T20:39:12.087Z,101347.89
2019-01-05T20:42:20.254Z,101354.95
2019-01-05T20:45:12.884Z,101343.42
2019-01-05T20:48:01.373Z,101344.45
2019-01-05T20:50:50.083Z,101349.32
2019-01-05T20:53:51.887Z,101346.10
2019-01-05T20:56:41.757Z,101353.56
2019-01-05T20:59:30.570Z,101362.20
2019-01-05T21:02:25.181Z,101363.45
2019-01-05T21:05:13.997Z,101360.39
2019-01-05T21:08:02.871Z,101353.25
2019-01-05T21:10:51.381Z,101361.18
2019-01-05T21:13:44.511Z,101349.16
2019-01-05T21:16:46.584Z,101351.84
2019-01-05T21:19:35.099Z,101360.16
2019-01-05T21:22:27.978Z,101353.48
2019-01-05T21:25:24.604Z,101356.47
2019-01-05T21:28:23.813Z,101359.30
2019-01-05T21:31:12.538Z,101362.44
2019-01-05T21:34:01.129Z,101365.34
2019-01-05T21:36:48.481Z,101361.34
2019-01-05T21:39:36.873Z,101363.22
2019-01-05T21:42:26.791Z,101364.86
2019-01-05T21:45:25.454Z,101372.31
2019-01-05T21:48:15.422Z,101370.98
2019-01-05T21:51:04.202Z,101379.86
2019-01-05T21:53:54.142Z,101380.88
2019-01-05T21:56:52.984Z,101380.80
2019-01-05T21:59:55.175Z,101383.77
2019-01-05T22:02:51.075Z,101372.84
2019-01-05T22:05:46.749Z,101386.64
2019-01-05T22:08:39.799Z,101389.56
2019-01-05T22:11:29.691Z,101390.64
2019-01-05T22:14:18.287Z,101395.91
2019-01-05T22:17:07.062Z,101393.22
2019-01-05T22:19:56.154Z,101393.52
2019-01-05T22:22:54.516Z,101397.27
2019-01-05T22:25:43.156Z,101399.54
2019-01-05T22:28:42.223Z,101405.67
2019-01-05T22:31:35.334Z,101404.62
2019-01-05T22:34:31.544Z,101399.00
2019-01-05T22:37:30.205Z,101399.61
2019-01-05T22:40:10.558Z,101400.01
2019-01-05T22:43:07.037Z,101421.56
2019-01-05T22:46:00.668Z,101411.30
2019-01-05T22:48:48.984Z,101411.62
2019-01-05T22:51:38.829Z,101412.02
2019-01-05T22:54:27.840Z,101410.97
2019-01-05T22:57:16.264Z,101412.63
2019-01-05T23:00:15.444Z,101407.55
2019-01-05T23:03:15.797Z,101415.44
2019-01-05T23:06:06.316Z,101408.62
2019-01-05T23:09:00.001Z,101415.15
2019-01-05T23:11:51.104Z,101417.50
2019-01-05T23:14:39.813Z,101414.28
2019-01-05T23:17:41.995Z,101410.58
2019-01-05T23:20:37.720Z,101404.88
2019-01-05T23:23:42.681Z,101403.90
2019-01-05T23:26:33.588Z,101404.04
2019-01-05T23:29:22.301Z,101410.19
2019-01-05T23:32:15.320Z,101404.28
2019-01-05T23:35:11.507Z,101407.29
2019-01-05T23:38:04.152Z,101407.83
2019-01-05T23:40:52.706Z,101405.70
2019-01-05T23:43:45.626Z,101413.69
2019-01-05T23:46:38.272Z,101421.03
2019-01-05T23:49:25.665Z,101424.56
2019-01-05T23:52:18.723Z,101421.76
2019-01-05T23:55:11.833Z,101427.36
2019-01-05T23:58:13.826Z,101427.02
